sensor_id;sensor_type;location;lat;lon;timestamp;P1;durP1;ratioP1;P2;durP2;ratioP2
37411;SDS011;23278;52.110;6.050;2022-12-11T00:01:24;33.80;;;13.00;;
37411;SDS011;23278;52.110;6.050;2022-12-11T00:03:50;24.83;;;10.47;;
37411;SDS011;23278;52.110;6.050;2022-12-11T00:06:17;27.33;;;10.98;;
37411;SDS011;23278;52.110;6.050;2022-12-11T00:08:45;23.50;;;9.13;;
37411;SDS011;23278;52.110;6.050;2022-12-11T00:11:12;38.47;;;13.27;;
37411;SDS011;23278;52.110;6.050;2022-12-11T00:13:39;39.70;;;15.23;;
37411;SDS011;23278;52.110;6.050;2022-12-11T00:16:05;31.35;;;12.00;;
37411;SDS011;23278;52.110;6.050;2022-12-11T00:18:31;26.67;;;12.53;;
37411;SDS011;23278;52.110;6.050;2022-12-11T00:21:01;29.35;;;11.35;;
37411;SDS011;23278;52.110;6.050;2022-12-11T00:23:28;38.28;;;14.82;;
37411;SDS011;23278;52.110;6.050;2022-12-11T00:25:55;31.30;;;12.53;;
37411;SDS011;23278;52.110;6.050;2022-12-11T00:28:21;28.15;;;10.50;;
37411;SDS011;23278;52.110;6.050;2022-12-11T00:30:47;31.55;;;11.50;;
37411;SDS011;23278;52.110;6.050;2022-12-11T00:33:14;26.80;;;11.02;;
37411;SDS011;23278;52.110;6.050;2022-12-11T00:35:41;39.63;;;14.03;;
37411;SDS011;23278;52.110;6.050;2022-12-11T00:38:16;40.00;;;14.68;;
37411;SDS011;23278;52.110;6.050;2022-12-11T00:40:44;32.85;;;12.18;;
37411;SDS011;23278;52.110;6.050;2022-12-11T00:43:11;34.10;;;13.50;;
37411;SDS011;23278;52.110;6.050;2022-12-11T00:45:37;36.83;;;15.02;;
37411;SDS011;23278;52.110;6.050;2022-12-11T00:48:06;41.53;;;16.20;;
37411;SDS011;23278;52.110;6.050;2022-12-11T00:50:33;42.97;;;16.63;;
37411;SDS011;23278;52.110;6.050;2022-12-11T00:52:59;50.60;;;16.40;;
37411;SDS011;23278;52.110;6.050;2022-12-11T00:55:26;38.00;;;15.43;;
37411;SDS011;23278;52.110;6.050;2022-12-11T00:57:53;39.20;;;13.27;;
37411;SDS011;23278;52.110;6.050;2022-12-11T01:00:20;30.87;;;11.63;;
37411;SDS011;23278;52.110;6.050;2022-12-11T01:02:47;37.93;;;14.70;;
37411;SDS011;23278;52.110;6.050;2022-12-11T01:05:13;33.57;;;12.80;;
37411;SDS011;23278;52.110;6.050;2022-12-11T01:07:39;39.70;;;13.70;;
37411;SDS011;23278;52.110;6.050;2022-12-11T01:10:05;32.23;;;12.10;;
37411;SDS011;23278;52.110;6.050;2022-12-11T01:12:59;29.65;;;10.68;;
37411;SDS011;23278;52.110;6.050;2022-12-11T01:15:29;25.42;;;9.98;;
37411;SDS011;23278;52.110;6.050;2022-12-11T01:17:56;37.70;;;13.32;;
37411;SDS011;23278;52.110;6.050;2022-12-11T01:20:23;41.17;;;13.98;;
37411;SDS011;23278;52.110;6.050;2022-12-11T01:22:51;30.35;;;11.20;;
37411;SDS011;23278;52.110;6.050;2022-12-11T01:25:18;36.70;;;13.33;;
37411;SDS011;23278;52.110;6.050;2022-12-11T01:27:44;41.70;;;13.35;;
37411;SDS011;23278;52.110;6.050;2022-12-11T01:30:11;33.00;;;11.40;;
37411;SDS011;23278;52.110;6.050;2022-12-11T01:32:38;35.60;;;11.40;;
37411;SDS011;23278;52.110;6.050;2022-12-11T01:35:05;43.20;;;13.85;;
37411;SDS011;23278;52.110;6.050;2022-12-11T01:37:32;28.90;;;12.73;;
37411;SDS011;23278;52.110;6.050;2022-12-11T01:39:59;33.47;;;13.77;;
37411;SDS011;23278;52.110;6.050;2022-12-11T01:42:25;41.08;;;13.98;;
37411;SDS011;23278;52.110;6.050;2022-12-11T01:47:59;31.77;;;11.50;;
37411;SDS011;23278;52.110;6.050;2022-12-11T01:50:32;35.38;;;14.13;;
37411;SDS011;23278;52.110;6.050;2022-12-11T01:53:03;32.05;;;13.07;;
37411;SDS011;23278;52.110;6.050;2022-12-11T01:55:32;34.03;;;13.33;;
37411;SDS011;23278;52.110;6.050;2022-12-11T01:57:59;26.43;;;10.63;;
37411;SDS011;23278;52.110;6.050;2022-12-11T02:00:26;28.17;;;10.50;;
37411;SDS011;23278;52.110;6.050;2022-12-11T02:02:52;45.88;;;14.40;;
37411;SDS011;23278;52.110;6.050;2022-12-11T02:05:18;41.90;;;13.77;;
37411;SDS011;23278;52.110;6.050;2022-12-11T02:07:45;36.87;;;14.70;;
37411;SDS011;23278;52.110;6.050;2022-12-11T02:10:23;38.75;;;12.35;;
37411;SDS011;23278;52.110;6.050;2022-12-11T02:12:59;33.40;;;12.55;;
37411;SDS011;23278;52.110;6.050;2022-12-11T02:15:40;35.47;;;11.85;;
37411;SDS011;23278;52.110;6.050;2022-12-11T02:18:35;28.02;;;11.82;;
37411;SDS011;23278;52.110;6.050;2022-12-11T02:21:17;28.15;;;10.85;;
37411;SDS011;23278;52.110;6.050;2022-12-11T02:29:19;31.33;;;12.37;;
37411;SDS011;23278;52.110;6.050;2022-12-11T02:31:55;35.60;;;11.20;;
37411;SDS011;23278;52.110;6.050;2022-12-11T02:37:11;31.65;;;11.25;;
37411;SDS011;23278;52.110;6.050;2022-12-11T02:39:45;30.05;;;11.25;;
37411;SDS011;23278;52.110;6.050;2022-12-11T02:42:14;30.55;;;10.45;;
37411;SDS011;23278;52.110;6.050;2022-12-11T02:44:42;24.25;;;11.73;;
37411;SDS011;23278;52.110;6.050;2022-12-11T02:47:10;24.90;;;8.40;;
37411;SDS011;23278;52.110;6.050;2022-12-11T02:49:39;24.97;;;10.67;;
37411;SDS011;23278;52.110;6.050;2022-12-11T02:52:08;27.83;;;9.23;;
37411;SDS011;23278;52.110;6.050;2022-12-11T02:54:37;26.73;;;10.07;;
37411;SDS011;23278;52.110;6.050;2022-12-11T02:57:07;29.90;;;10.43;;
37411;SDS011;23278;52.110;6.050;2022-12-11T02:59:43;31.88;;;9.90;;
37411;SDS011;23278;52.110;6.050;2022-12-11T03:02:11;31.50;;;9.88;;
37411;SDS011;23278;52.110;6.050;2022-12-11T03:04:38;23.67;;;9.07;;
37411;SDS011;23278;52.110;6.050;2022-12-11T03:07:06;32.47;;;13.15;;
37411;SDS011;23278;52.110;6.050;2022-12-11T03:09:44;30.45;;;12.95;;
37411;SDS011;23278;52.110;6.050;2022-12-11T03:12:14;31.33;;;11.43;;
37411;SDS011;23278;52.110;6.050;2022-12-11T03:17:11;22.60;;;8.07;;
37411;SDS011;23278;52.110;6.050;2022-12-11T03:22:38;19.25;;;8.65;;
37411;SDS011;23278;52.110;6.050;2022-12-11T03:25:12;31.92;;;9.70;;
37411;SDS011;23278;52.110;6.050;2022-12-11T03:27:56;21.02;;;8.13;;
37411;SDS011;23278;52.110;6.050;2022-12-11T03:30:28;26.83;;;9.07;;
37411;SDS011;23278;52.110;6.050;2022-12-11T03:33:09;23.00;;;8.48;;
37411;SDS011;23278;52.110;6.050;2022-12-11T03:35:40;24.00;;;8.15;;
37411;SDS011;23278;52.110;6.050;2022-12-11T03:38:10;16.13;;;7.28;;
37411;SDS011;23278;52.110;6.050;2022-12-11T03:40:44;23.77;;;9.18;;
37411;SDS011;23278;52.110;6.050;2022-12-11T03:43:13;30.70;;;10.93;;
37411;SDS011;23278;52.110;6.050;2022-12-11T03:45:41;21.30;;;8.55;;
37411;SDS011;23278;52.110;6.050;2022-12-11T03:48:07;28.55;;;10.07;;
37411;SDS011;23278;52.110;6.050;2022-12-11T03:50:34;26.63;;;9.75;;
37411;SDS011;23278;52.110;6.050;2022-12-11T03:53:01;26.42;;;11.38;;
37411;SDS011;23278;52.110;6.050;2022-12-11T03:55:28;24.25;;;8.77;;
37411;SDS011;23278;52.110;6.050;2022-12-11T03:57:57;18.90;;;7.90;;
37411;SDS011;23278;52.110;6.050;2022-12-11T04:00:23;23.95;;;8.68;;
37411;SDS011;23278;52.110;6.050;2022-12-11T04:02:49;24.45;;;9.30;;
37411;SDS011;23278;52.110;6.050;2022-12-11T04:05:34;24.08;;;9.65;;
37411;SDS011;23278;52.110;6.050;2022-12-11T04:08:00;26.25;;;9.18;;
37411;SDS011;23278;52.110;6.050;2022-12-11T04:10:26;23.05;;;8.65;;
37411;SDS011;23278;52.110;6.050;2022-12-11T04:12:52;22.30;;;8.80;;
37411;SDS011;23278;52.110;6.050;2022-12-11T04:15:18;20.25;;;8.23;;
37411;SDS011;23278;52.110;6.050;2022-12-11T04:17:44;27.52;;;9.82;;
37411;SDS011;23278;52.110;6.050;2022-12-11T04:20:28;24.42;;;9.60;;
37411;SDS011;23278;52.110;6.050;2022-12-11T04:23:15;26.63;;;8.73;;
37411;SDS011;23278;52.110;6.050;2022-12-11T04:26:04;21.05;;;8.63;;
37411;SDS011;23278;52.110;6.050;2022-12-11T04:28:32;23.45;;;8.90;;
37411;SDS011;23278;52.110;6.050;2022-12-11T04:30:59;25.95;;;9.75;;
37411;SDS011;23278;52.110;6.050;2022-12-11T04:33:26;24.15;;;9.32;;
37411;SDS011;23278;52.110;6.050;2022-12-11T04:35:52;20.52;;;8.15;;
37411;SDS011;23278;52.110;6.050;2022-12-11T04:38:18;21.30;;;7.82;;
37411;SDS011;23278;52.110;6.050;2022-12-11T04:40:44;27.50;;;9.93;;
37411;SDS011;23278;52.110;6.050;2022-12-11T04:43:10;24.48;;;8.75;;
37411;SDS011;23278;52.110;6.050;2022-12-11T04:45:36;22.50;;;9.73;;
37411;SDS011;23278;52.110;6.050;2022-12-11T04:48:02;25.63;;;11.40;;
37411;SDS011;23278;52.110;6.050;2022-12-11T04:50:28;27.98;;;9.35;;
37411;SDS011;23278;52.110;6.050;2022-12-11T04:52:54;21.93;;;9.60;;
37411;SDS011;23278;52.110;6.050;2022-12-11T04:55:20;28.70;;;9.55;;
37411;SDS011;23278;52.110;6.050;2022-12-11T04:57:46;27.98;;;9.18;;
37411;SDS011;23278;52.110;6.050;2022-12-11T05:00:12;27.45;;;9.93;;
37411;SDS011;23278;52.110;6.050;2022-12-11T05:02:38;28.60;;;11.02;;
37411;SDS011;23278;52.110;6.050;2022-12-11T05:05:06;28.33;;;10.50;;
37411;SDS011;23278;52.110;6.050;2022-12-11T05:07:36;29.25;;;10.75;;
37411;SDS011;23278;52.110;6.050;2022-12-11T05:10:03;23.07;;;8.63;;
37411;SDS011;23278;52.110;6.050;2022-12-11T05:12:30;26.15;;;9.57;;
37411;SDS011;23278;52.110;6.050;2022-12-11T05:14:57;23.33;;;9.52;;
37411;SDS011;23278;52.110;6.050;2022-12-11T05:17:23;26.02;;;9.95;;
37411;SDS011;23278;52.110;6.050;2022-12-11T05:19:49;25.60;;;9.95;;
37411;SDS011;23278;52.110;6.050;2022-12-11T05:22:16;27.77;;;10.02;;
37411;SDS011;23278;52.110;6.050;2022-12-11T05:24:42;26.90;;;9.85;;
37411;SDS011;23278;52.110;6.050;2022-12-11T05:27:08;30.52;;;10.55;;
37411;SDS011;23278;52.110;6.050;2022-12-11T05:29:35;26.93;;;9.87;;
37411;SDS011;23278;52.110;6.050;2022-12-11T05:32:01;33.95;;;12.48;;
37411;SDS011;23278;52.110;6.050;2022-12-11T05:34:28;30.05;;;10.70;;
37411;SDS011;23278;52.110;6.050;2022-12-11T05:36:54;27.05;;;10.80;;
37411;SDS011;23278;52.110;6.050;2022-12-11T05:39:19;32.50;;;11.30;;
37411;SDS011;23278;52.110;6.050;2022-12-11T05:41:45;32.30;;;11.40;;
37411;SDS011;23278;52.110;6.050;2022-12-11T05:44:11;32.88;;;11.27;;
37411;SDS011;23278;52.110;6.050;2022-12-11T05:46:38;34.08;;;13.27;;
37411;SDS011;23278;52.110;6.050;2022-12-11T05:49:04;37.00;;;14.02;;
37411;SDS011;23278;52.110;6.050;2022-12-11T05:51:30;39.33;;;15.98;;
37411;SDS011;23278;52.110;6.050;2022-12-11T05:53:58;38.22;;;15.35;;
37411;SDS011;23278;52.110;6.050;2022-12-11T05:56:26;41.05;;;16.33;;
37411;SDS011;23278;52.110;6.050;2022-12-11T05:58:54;38.85;;;15.60;;
37411;SDS011;23278;52.110;6.050;2022-12-11T06:01:31;40.63;;;15.43;;
37411;SDS011;23278;52.110;6.050;2022-12-11T06:04:01;37.42;;;15.52;;
37411;SDS011;23278;52.110;6.050;2022-12-11T06:06:28;35.63;;;13.65;;
37411;SDS011;23278;52.110;6.050;2022-12-11T06:08:55;28.08;;;11.27;;
37411;SDS011;23278;52.110;6.050;2022-12-11T06:11:22;26.38;;;10.63;;
37411;SDS011;23278;52.110;6.050;2022-12-11T06:13:49;29.08;;;11.63;;
37411;SDS011;23278;52.110;6.050;2022-12-11T06:16:16;29.17;;;14.05;;
37411;SDS011;23278;52.110;6.050;2022-12-11T06:18:43;33.25;;;14.07;;
37411;SDS011;23278;52.110;6.050;2022-12-11T06:21:19;31.05;;;12.90;;
37411;SDS011;23278;52.110;6.050;2022-12-11T06:23:47;17.08;;;8.65;;
37411;SDS011;23278;52.110;6.050;2022-12-11T06:26:15;32.90;;;13.45;;
37411;SDS011;23278;52.110;6.050;2022-12-11T06:28:41;24.92;;;10.98;;
37411;SDS011;23278;52.110;6.050;2022-12-11T06:31:07;22.63;;;10.43;;
37411;SDS011;23278;52.110;6.050;2022-12-11T06:33:33;33.40;;;13.30;;
37411;SDS011;23278;52.110;6.050;2022-12-11T06:36:03;30.80;;;13.35;;
37411;SDS011;23278;52.110;6.050;2022-12-11T06:38:30;32.58;;;14.30;;
37411;SDS011;23278;52.110;6.050;2022-12-11T06:40:57;28.90;;;13.30;;
37411;SDS011;23278;52.110;6.050;2022-12-11T06:43:25;22.20;;;9.65;;
37411;SDS011;23278;52.110;6.050;2022-12-11T06:45:51;31.00;;;12.60;;
37411;SDS011;23278;52.110;6.050;2022-12-11T06:48:17;31.73;;;12.52;;
37411;SDS011;23278;52.110;6.050;2022-12-11T06:50:44;30.08;;;13.63;;
37411;SDS011;23278;52.110;6.050;2022-12-11T06:53:10;26.80;;;12.93;;
37411;SDS011;23278;52.110;6.050;2022-12-11T06:55:37;25.60;;;10.45;;
37411;SDS011;23278;52.110;6.050;2022-12-11T06:58:03;37.10;;;16.55;;
37411;SDS011;23278;52.110;6.050;2022-12-11T07:00:29;29.65;;;14.40;;
37411;SDS011;23278;52.110;6.050;2022-12-11T07:02:55;34.28;;;17.15;;
37411;SDS011;23278;52.110;6.050;2022-12-11T07:05:21;31.55;;;14.85;;
37411;SDS011;23278;52.110;6.050;2022-12-11T07:07:48;28.15;;;14.65;;
37411;SDS011;23278;52.110;6.050;2022-12-11T07:10:14;39.08;;;15.90;;
37411;SDS011;23278;52.110;6.050;2022-12-11T07:12:40;33.05;;;15.88;;
37411;SDS011;23278;52.110;6.050;2022-12-11T07:15:06;28.35;;;14.65;;
37411;SDS011;23278;52.110;6.050;2022-12-11T07:17:32;33.50;;;16.50;;
37411;SDS011;23278;52.110;6.050;2022-12-11T07:19:58;35.80;;;17.05;;
37411;SDS011;23278;52.110;6.050;2022-12-11T07:22:24;32.65;;;14.10;;
37411;SDS011;23278;52.110;6.050;2022-12-11T07:24:49;30.80;;;14.55;;
37411;SDS011;23278;52.110;6.050;2022-12-11T07:27:15;35.15;;;16.58;;
37411;SDS011;23278;52.110;6.050;2022-12-11T07:29:41;32.40;;;16.95;;
37411;SDS011;23278;52.110;6.050;2022-12-11T07:32:07;26.70;;;14.05;;
37411;SDS011;23278;52.110;6.050;2022-12-11T07:34:33;32.72;;;16.10;;
37411;SDS011;23278;52.110;6.050;2022-12-11T07:36:59;33.25;;;17.33;;
37411;SDS011;23278;52.110;6.050;2022-12-11T07:39:25;32.83;;;16.70;;
37411;SDS011;23278;52.110;6.050;2022-12-11T07:41:51;32.17;;;15.38;;
37411;SDS011;23278;52.110;6.050;2022-12-11T07:44:18;33.47;;;17.23;;
37411;SDS011;23278;52.110;6.050;2022-12-11T07:46:43;39.58;;;20.08;;
37411;SDS011;23278;52.110;6.050;2022-12-11T07:49:09;27.20;;;14.43;;
37411;SDS011;23278;52.110;6.050;2022-12-11T07:51:36;35.05;;;16.55;;
37411;SDS011;23278;52.110;6.050;2022-12-11T07:54:06;32.95;;;17.42;;
37411;SDS011;23278;52.110;6.050;2022-12-11T07:56:37;35.25;;;15.68;;
37411;SDS011;23278;52.110;6.050;2022-12-11T07:59:03;29.02;;;14.45;;
37411;SDS011;23278;52.110;6.050;2022-12-11T08:01:31;27.73;;;14.65;;
37411;SDS011;23278;52.110;6.050;2022-12-11T08:03:59;23.55;;;12.88;;
37411;SDS011;23278;52.110;6.050;2022-12-11T08:06:26;28.67;;;16.13;;
37411;SDS011;23278;52.110;6.050;2022-12-11T08:08:58;22.30;;;11.30;;
37411;SDS011;23278;52.110;6.050;2022-12-11T08:11:26;21.88;;;11.38;;
37411;SDS011;23278;52.110;6.050;2022-12-11T08:13:52;21.90;;;12.70;;
37411;SDS011;23278;52.110;6.050;2022-12-11T08:16:18;18.55;;;9.25;;
37411;SDS011;23278;52.110;6.050;2022-12-11T08:18:45;17.60;;;10.13;;
37411;SDS011;23278;52.110;6.050;2022-12-11T08:23:41;25.17;;;12.48;;
37411;SDS011;23278;52.110;6.050;2022-12-11T08:26:09;18.73;;;11.70;;
37411;SDS011;23278;52.110;6.050;2022-12-11T08:28:39;26.00;;;13.82;;
37411;SDS011;23278;52.110;6.050;2022-12-11T08:31:06;21.85;;;12.30;;
37411;SDS011;23278;52.110;6.050;2022-12-11T08:33:34;25.85;;;14.75;;
37411;SDS011;23278;52.110;6.050;2022-12-11T08:36:02;28.35;;;15.75;;
37411;SDS011;23278;52.110;6.050;2022-12-11T08:38:29;28.85;;;13.68;;
37411;SDS011;23278;52.110;6.050;2022-12-11T08:40:55;24.65;;;13.98;;
37411;SDS011;23278;52.110;6.050;2022-12-11T08:43:21;32.65;;;17.75;;
37411;SDS011;23278;52.110;6.050;2022-12-11T08:45:47;21.73;;;12.70;;
37411;SDS011;23278;52.110;6.050;2022-12-11T08:48:13;20.85;;;11.95;;
37411;SDS011;23278;52.110;6.050;2022-12-11T08:50:39;19.60;;;11.00;;
37411;SDS011;23278;52.110;6.050;2022-12-11T08:53:05;19.27;;;10.52;;
37411;SDS011;23278;52.110;6.050;2022-12-11T08:55:31;18.60;;;11.90;;
37411;SDS011;23278;52.110;6.050;2022-12-11T08:57:58;17.17;;;10.20;;
37411;SDS011;23278;52.110;6.050;2022-12-11T09:00:26;21.13;;;12.25;;
37411;SDS011;23278;52.110;6.050;2022-12-11T09:02:52;17.65;;;10.38;;
37411;SDS011;23278;52.110;6.050;2022-12-11T09:05:17;17.33;;;10.63;;
37411;SDS011;23278;52.110;6.050;2022-12-11T09:07:43;19.92;;;11.30;;
37411;SDS011;23278;52.110;6.050;2022-12-11T09:10:09;18.30;;;10.45;;
37411;SDS011;23278;52.110;6.050;2022-12-11T09:12:35;17.27;;;10.05;;
37411;SDS011;23278;52.110;6.050;2022-12-11T09:15:02;17.02;;;9.38;;
37411;SDS011;23278;52.110;6.050;2022-12-11T09:17:29;21.08;;;10.75;;
37411;SDS011;23278;52.110;6.050;2022-12-11T09:19:54;19.30;;;11.05;;
37411;SDS011;23278;52.110;6.050;2022-12-11T09:22:22;18.52;;;10.75;;
37411;SDS011;23278;52.110;6.050;2022-12-11T09:24:48;13.90;;;9.23;;
37411;SDS011;23278;52.110;6.050;2022-12-11T09:27:13;16.98;;;9.82;;
37411;SDS011;23278;52.110;6.050;2022-12-11T09:29:39;10.80;;;6.68;;
37411;SDS011;23278;52.110;6.050;2022-12-11T09:32:05;16.33;;;8.60;;
37411;SDS011;23278;52.110;6.050;2022-12-11T09:34:31;14.00;;;7.90;;
37411;SDS011;23278;52.110;6.050;2022-12-11T09:36:57;13.70;;;8.73;;
37411;SDS011;23278;52.110;6.050;2022-12-11T09:39:23;13.82;;;7.57;;
37411;SDS011;23278;52.110;6.050;2022-12-11T09:47:18;12.27;;;7.50;;
37411;SDS011;23278;52.110;6.050;2022-12-11T09:50:15;13.23;;;8.05;;
37411;SDS011;23278;52.110;6.050;2022-12-11T09:55:59;19.05;;;10.82;;
37411;SDS011;23278;52.110;6.050;2022-12-11T10:01:26;14.05;;;8.95;;
37411;SDS011;23278;52.110;6.050;2022-12-11T10:09:32;12.13;;;7.63;;
37411;SDS011;23278;52.110;6.050;2022-12-11T10:12:07;15.07;;;8.40;;
37411;SDS011;23278;52.110;6.050;2022-12-11T10:17:31;9.73;;;6.65;;
37411;SDS011;23278;52.110;6.050;2022-12-11T10:22:39;17.13;;;9.40;;
37411;SDS011;23278;52.110;6.050;2022-12-11T10:25:21;12.80;;;8.00;;
37411;SDS011;23278;52.110;6.050;2022-12-11T10:28:01;12.02;;;8.15;;
37411;SDS011;23278;52.110;6.050;2022-12-11T10:30:38;11.98;;;7.03;;
37411;SDS011;23278;52.110;6.050;2022-12-11T10:35:47;9.50;;;6.15;;
37411;SDS011;23278;52.110;6.050;2022-12-11T10:38:31;9.40;;;5.35;;
37411;SDS011;23278;52.110;6.050;2022-12-11T10:41:14;7.88;;;5.22;;
37411;SDS011;23278;52.110;6.050;2022-12-11T10:43:44;10.50;;;7.10;;
37411;SDS011;23278;52.110;6.050;2022-12-11T10:46:19;7.95;;;5.32;;
37411;SDS011;23278;52.110;6.050;2022-12-11T10:48:53;11.13;;;7.03;;
37411;SDS011;23278;52.110;6.050;2022-12-11T10:51:24;13.50;;;8.00;;
37411;SDS011;23278;52.110;6.050;2022-12-11T10:54:04;12.68;;;7.53;;
37411;SDS011;23278;52.110;6.050;2022-12-11T10:56:33;10.73;;;6.57;;
37411;SDS011;23278;52.110;6.050;2022-12-11T10:59:02;12.25;;;7.55;;
37411;SDS011;23278;52.110;6.050;2022-12-11T11:01:30;12.68;;;7.50;;
37411;SDS011;23278;52.110;6.050;2022-12-11T11:04:18;15.95;;;9.02;;
37411;SDS011;23278;52.110;6.050;2022-12-11T11:07:09;15.68;;;9.43;;
37411;SDS011;23278;52.110;6.050;2022-12-11T11:12:39;14.98;;;8.75;;
37411;SDS011;23278;52.110;6.050;2022-12-11T11:15:14;17.80;;;8.23;;
37411;SDS011;23278;52.110;6.050;2022-12-11T11:17:48;12.82;;;8.90;;
37411;SDS011;23278;52.110;6.050;2022-12-11T11:20:20;13.25;;;7.68;;
37411;SDS011;23278;52.110;6.050;2022-12-11T11:22:53;15.95;;;9.13;;
37411;SDS011;23278;52.110;6.050;2022-12-11T11:25:36;13.73;;;8.43;;
37411;SDS011;23278;52.110;6.050;2022-12-11T11:28:14;14.63;;;8.38;;
37411;SDS011;23278;52.110;6.050;2022-12-11T11:33:21;14.73;;;8.70;;
37411;SDS011;23278;52.110;6.050;2022-12-11T11:35:51;17.15;;;9.55;;
37411;SDS011;23278;52.110;6.050;2022-12-11T11:38:20;15.68;;;9.35;;
37411;SDS011;23278;52.110;6.050;2022-12-11T11:40:54;14.05;;;9.45;;
37411;SDS011;23278;52.110;6.050;2022-12-11T11:43:39;14.27;;;8.10;;
37411;SDS011;23278;52.110;6.050;2022-12-11T11:46:28;15.82;;;9.85;;
37411;SDS011;23278;52.110;6.050;2022-12-11T11:51:38;14.43;;;8.57;;
37411;SDS011;23278;52.110;6.050;2022-12-11T11:57:19;15.70;;;9.60;;
37411;SDS011;23278;52.110;6.050;2022-12-11T12:00:00;17.63;;;11.45;;
37411;SDS011;23278;52.110;6.050;2022-12-11T12:02:37;20.23;;;11.73;;
37411;SDS011;23278;52.110;6.050;2022-12-11T12:05:05;16.98;;;11.55;;
37411;SDS011;23278;52.110;6.050;2022-12-11T12:10:41;15.27;;;9.68;;
37411;SDS011;23278;52.110;6.050;2022-12-11T12:15:47;13.52;;;8.15;;
37411;SDS011;23278;52.110;6.050;2022-12-11T12:20:48;16.15;;;9.27;;
37411;SDS011;23278;52.110;6.050;2022-12-11T12:37:21;12.88;;;8.43;;
37411;SDS011;23278;52.110;6.050;2022-12-11T12:42:51;13.13;;;8.63;;
37411;SDS011;23278;52.110;6.050;2022-12-11T12:45:29;15.50;;;10.43;;
37411;SDS011;23278;52.110;6.050;2022-12-11T12:47:59;14.45;;;9.00;;
37411;SDS011;23278;52.110;6.050;2022-12-11T12:50:27;15.25;;;9.57;;
37411;SDS011;23278;52.110;6.050;2022-12-11T12:53:01;16.42;;;11.15;;
37411;SDS011;23278;52.110;6.050;2022-12-11T12:55:30;19.67;;;12.63;;
37411;SDS011;23278;52.110;6.050;2022-12-11T12:58:05;17.38;;;11.60;;
37411;SDS011;23278;52.110;6.050;2022-12-11T13:00:39;20.80;;;12.70;;
37411;SDS011;23278;52.110;6.050;2022-12-11T13:06:03;16.45;;;10.52;;
37411;SDS011;23278;52.110;6.050;2022-12-11T13:08:29;16.08;;;10.73;;
37411;SDS011;23278;52.110;6.050;2022-12-11T13:11:09;12.82;;;9.35;;
37411;SDS011;23278;52.110;6.050;2022-12-11T13:13:38;16.45;;;10.15;;
37411;SDS011;23278;52.110;6.050;2022-12-11T13:16:24;19.75;;;12.10;;
37411;SDS011;23278;52.110;6.050;2022-12-11T13:18:54;15.70;;;10.40;;
37411;SDS011;23278;52.110;6.050;2022-12-11T13:21:33;14.10;;;9.25;;
37411;SDS011;23278;52.110;6.050;2022-12-11T13:24:13;16.83;;;11.15;;
37411;SDS011;23278;52.110;6.050;2022-12-11T13:26:41;15.07;;;10.00;;
37411;SDS011;23278;52.110;6.050;2022-12-11T13:34:35;21.73;;;12.23;;
37411;SDS011;23278;52.110;6.050;2022-12-11T13:37:16;21.23;;;11.73;;
37411;SDS011;23278;52.110;6.050;2022-12-11T13:39:51;22.73;;;13.70;;
37411;SDS011;23278;52.110;6.050;2022-12-11T13:42:20;20.98;;;11.20;;
37411;SDS011;23278;52.110;6.050;2022-12-11T13:44:59;19.13;;;11.32;;
37411;SDS011;23278;52.110;6.050;2022-12-11T13:47:27;16.88;;;10.95;;
37411;SDS011;23278;52.110;6.050;2022-12-11T13:49:59;17.83;;;11.80;;
37411;SDS011;23278;52.110;6.050;2022-12-11T13:52:54;21.42;;;12.07;;
37411;SDS011;23278;52.110;6.050;2022-12-11T13:55:39;17.83;;;10.43;;
37411;SDS011;23278;52.110;6.050;2022-12-11T13:58:18;13.50;;;9.23;;
37411;SDS011;23278;52.110;6.050;2022-12-11T14:03:29;19.05;;;10.48;;
37411;SDS011;23278;52.110;6.050;2022-12-11T14:05:55;18.73;;;11.20;;
37411;SDS011;23278;52.110;6.050;2022-12-11T14:08:23;14.73;;;8.75;;
37411;SDS011;23278;52.110;6.050;2022-12-11T14:10:55;17.60;;;8.88;;
37411;SDS011;23278;52.110;6.050;2022-12-11T14:13:22;19.67;;;10.80;;
37411;SDS011;23278;52.110;6.050;2022-12-11T14:15:51;14.43;;;10.05;;
37411;SDS011;23278;52.110;6.050;2022-12-11T14:18:22;23.05;;;13.05;;
37411;SDS011;23278;52.110;6.050;2022-12-11T14:20:54;15.88;;;10.13;;
37411;SDS011;23278;52.110;6.050;2022-12-11T14:23:23;18.27;;;12.10;;
37411;SDS011;23278;52.110;6.050;2022-12-11T14:25:51;18.40;;;11.52;;
37411;SDS011;23278;52.110;6.050;2022-12-11T14:28:22;21.38;;;12.00;;
37411;SDS011;23278;52.110;6.050;2022-12-11T14:30:58;20.40;;;13.85;;
37411;SDS011;23278;52.110;6.050;2022-12-11T14:33:27;14.20;;;9.95;;
37411;SDS011;23278;52.110;6.050;2022-12-11T14:35:58;15.95;;;9.90;;
37411;SDS011;23278;52.110;6.050;2022-12-11T14:38:59;14.85;;;9.00;;
37411;SDS011;23278;52.110;6.050;2022-12-11T14:41:24;15.95;;;9.70;;
37411;SDS011;23278;52.110;6.050;2022-12-11T14:44:01;18.45;;;10.77;;
37411;SDS011;23278;52.110;6.050;2022-12-11T14:46:33;21.50;;;11.10;;
37411;SDS011;23278;52.110;6.050;2022-12-11T14:52:03;15.60;;;9.85;;
37411;SDS011;23278;52.110;6.050;2022-12-11T14:57:00;16.33;;;10.27;;
37411;SDS011;23278;52.110;6.050;2022-12-11T14:59:31;15.93;;;9.80;;
37411;SDS011;23278;52.110;6.050;2022-12-11T15:02:21;22.15;;;12.68;;
37411;SDS011;23278;52.110;6.050;2022-12-11T15:05:03;23.95;;;13.55;;
37411;SDS011;23278;52.110;6.050;2022-12-11T15:07:51;17.60;;;11.93;;
37411;SDS011;23278;52.110;6.050;2022-12-11T15:10:23;20.92;;;11.10;;
37411;SDS011;23278;52.110;6.050;2022-12-11T15:13:01;16.58;;;9.82;;
37411;SDS011;23278;52.110;6.050;2022-12-11T15:15:32;14.30;;;8.88;;
37411;SDS011;23278;52.110;6.050;2022-12-11T15:18:20;13.82;;;8.50;;
37411;SDS011;23278;52.110;6.050;2022-12-11T15:20:49;18.38;;;9.32;;
37411;SDS011;23278;52.110;6.050;2022-12-11T15:23:17;19.08;;;10.98;;
37411;SDS011;23278;52.110;6.050;2022-12-11T15:25:50;16.80;;;10.30;;
37411;SDS011;23278;52.110;6.050;2022-12-11T15:31:25;13.10;;;9.00;;
37411;SDS011;23278;52.110;6.050;2022-12-11T15:33:55;15.15;;;9.38;;
37411;SDS011;23278;52.110;6.050;2022-12-11T15:38:56;15.30;;;8.25;;
37411;SDS011;23278;52.110;6.050;2022-12-11T15:41:22;17.17;;;9.25;;
37411;SDS011;23278;52.110;6.050;2022-12-11T15:43:53;12.48;;;9.35;;
37411;SDS011;23278;52.110;6.050;2022-12-11T15:46:20;16.42;;;9.05;;
37411;SDS011;23278;52.110;6.050;2022-12-11T15:48:47;18.75;;;9.80;;
37411;SDS011;23278;52.110;6.050;2022-12-11T15:51:14;13.77;;;9.05;;
37411;SDS011;23278;52.110;6.050;2022-12-11T15:53:40;14.48;;;9.15;;
37411;SDS011;23278;52.110;6.050;2022-12-11T15:56:08;14.73;;;8.88;;
37411;SDS011;23278;52.110;6.050;2022-12-11T15:58:37;17.25;;;9.30;;
37411;SDS011;23278;52.110;6.050;2022-12-11T16:01:03;14.80;;;8.57;;
37411;SDS011;23278;52.110;6.050;2022-12-11T16:03:30;17.10;;;8.93;;
37411;SDS011;23278;52.110;6.050;2022-12-11T16:05:56;16.90;;;10.13;;
37411;SDS011;23278;52.110;6.050;2022-12-11T16:08:23;25.52;;;13.43;;
37411;SDS011;23278;52.110;6.050;2022-12-11T16:10:51;22.05;;;12.32;;
37411;SDS011;23278;52.110;6.050;2022-12-11T16:13:18;19.65;;;11.68;;
37411;SDS011;23278;52.110;6.050;2022-12-11T16:15:45;23.27;;;12.15;;
37411;SDS011;23278;52.110;6.050;2022-12-11T16:18:13;18.00;;;10.75;;
37411;SDS011;23278;52.110;6.050;2022-12-11T16:20:41;19.85;;;11.13;;
37411;SDS011;23278;52.110;6.050;2022-12-11T16:23:08;20.85;;;10.00;;
37411;SDS011;23278;52.110;6.050;2022-12-11T16:25:38;14.70;;;8.68;;